Time,TemperatureF,DewpointF,PressureIn,WindDirection,WindDirectionDegrees,WindSpeedMPH,WindSpeedGustMPH,Humidity,HourlyPrecipIn,Conditions,Clouds,dailyrainin,SoftwareType,DateUTC
2013-07-14 00:01:00,64.5,63.6,30.24,West,267,0.0,1.0,97,0.00,,SCT180,0.00,VWS V14.00,2013-07-14 04:01:00,
2013-07-14 00:06:00,64.7,63.8,30.24,West,275,0.0,3.0,97,0.00,,SCT180,0.00,VWS V14.00,2013-07-14 04:06:00,
2013-07-14 00:11:00,64.7,63.8,30.24,West,275,0.0,3.0,97,0.00,,SCT180,0.00,VWS V14.00,2013-07-14 04:11:00,
2013-07-14 00:16:00,64.8,63.9,30.24,West,275,0.0,3.0,97,0.00,,SCT180,0.00,VWS V14.00,2013-07-14 04:16:00,
2013-07-14 00:21:00,64.9,64.0,30.24,West,275,0.0,3.0,97,0.00,,SCT180,0.00,VWS V14.00,2013-07-14 04:21:00,
2013-07-14 00:26:00,64.8,63.9,30.24,West,275,0.0,3.0,97,0.00,,SCT180,0.00,VWS V14.00,2013-07-14 04:26:00,
2013-07-14 00:31:00,64.8,63.9,30.24,West,275,0.0,0.0,97,0.00,,SCT180,0.00,VWS V14.00,2013-07-14 04:31:00,
2013-07-14 00:36:00,64.9,64.0,30.24,West,275,0.0,1.0,97,0.00,,SCT180,0.00,VWS V14.00,2013-07-14 04:36:00,
2013-07-14 00:41:00,65.0,64.1,30.24,West,275,0.0,1.0,97,0.00,,SCT180,0.00,VWS V14.00,2013-07-14 04:41:00,
2013-07-14 00:46:00,65.0,64.1,30.24,West,275,0.0,1.0,97,0.00,,SCT180,0.00,VWS V14.00,2013-07-14 04:46:00,
2013-07-14 00:51:00,64.9,64.0,30.24,West,275,0.0,1.0,97,0.00,,SCT180,0.00,VWS V14.00,2013-07-14 04:51:00,
2013-07-14 00:56:00,64.8,63.9,30.25,West,275,1.0,1.0,97,0.00,,SCT180,0.00,VWS V14.00,2013-07-14 04:56:00,
2013-07-14 01:01:00,64.9,64.0,30.25,West,275,0.0,1.0,97,0.00,,SCT180,0.00,VWS V14.00,2013-07-14 05:01:00,
2013-07-14 01:06:00,65.0,64.1,30.25,West,275,0.0,1.0,97,0.00,,SCT180,0.00,VWS V14.00,2013-07-14 05:06:00,
2013-07-14 01:11:00,65.0,64.1,30.25,West,275,0.0,1.0,97,0.00,,SCT180,0.00,VWS V14.00,2013-07-14 05:11:00,
2013-07-14 01:16:00,65.0,64.1,30.25,West,275,0.0,1.0,97,0.00,,SCT180,0.00,VWS V14.00,2013-07-14 05:16:00,
2013-07-14 01:21:00,64.9,64.0,30.25,West,275,0.0,1.0,97,0.00,,SCT180,0.00,VWS V14.00,2013-07-14 05:21:00,
2013-07-14 01:26:00,64.8,63.9,30.24,West,275,0.0,1.0,97,0.00,,SCT180,0.00,VWS V14.00,2013-07-14 05:26:00,
2013-07-14 01:31:00,64.9,64.0,30.24,West,275,0.0,0.0,97,0.00,,SCT180,0.00,VWS V14.00,2013-07-14 05:31:00,
2013-07-14 01:36:00,64.7,63.8,30.24,West,275,0.0,0.0,97,0.00,,SCT180,0.00,VWS V14.00,2013-07-14 05:36:00,
2013-07-14 01:41:00,64.7,63.8,30.24,West,275,0.0,0.0,97,0.00,,SCT180,0.00,VWS V14.00,2013-07-14 05:41:00,
2013-07-14 01:46:00,64.8,63.9,30.24,West,275,0.0,0.0,97,0.00,,SCT180,0.00,VWS V14.00,2013-07-14 05:46:00,
2013-07-14 01:51:00,64.8,63.9,30.24,West,275,0.0,0.0,97,0.00,,SCT180,0.00,VWS V14.00,2013-07-14 05:51:00,
2013-07-14 01:56:00,64.5,63.6,30.24,West,275,0.0,0.0,97,0.00,,SCT180,0.00,VWS V14.00,2013-07-14 05:56:00,
2013-07-14 02:01:00,64.5,63.6,30.24,West,275,0.0,0.0,97,0.00,,SCT180,0.00,VWS V14.00,2013-07-14 06:01:00,
2013-07-14 02:06:00,64.5,63.6,30.24,West,275,0.0,0.0,97,0.00,,SCT180,0.00,VWS V14.00,2013-07-14 06:06:00,
2013-07-14 02:11:00,64.7,64.1,30.24,West,275,0.0,2.0,98,0.00,,SCT180,0.00,VWS V14.00,2013-07-14 06:11:00,
2013-07-14 02:16:00,64.7,64.1,30.24,West,275,0.0,2.0,98,0.00,,SCT180,0.00,VWS V14.00,2013-07-14 06:16:00,
2013-07-14 02:21:00,64.6,64.0,30.24,West,275,0.0,2.0,98,0.00,,SCT180,0.00,VWS V14.00,2013-07-14 06:21:00,
2013-07-14 02:26:00,64.7,64.1,30.24,West,275,0.0,2.0,98,0.00,,SCT180,0.00,VWS V14.00,2013-07-14 06:26:00,
2013-07-14 02:31:00,64.9,64.3,30.24,West,275,0.0,0.0,98,0.00,,SCT180,0.00,VWS V14.00,2013-07-14 06:31:00,
2013-07-14 02:36:00,65.1,64.5,30.23,West,275,0.0,0.0,98,0.00,,SCT180,0.00,VWS V14.00,2013-07-14 06:36:00,
2013-07-14 02:41:00,65.2,64.6,30.23,West,275,0.0,0.0,98,0.00,,SCT180,0.00,VWS V14.00,2013-07-14 06:41:00,
2013-07-14 02:46:00,65.2,64.6,30.23,West,275,0.0,0.0,98,0.00,,SCT180,0.00,VWS V14.00,2013-07-14 06:46:00,
2013-07-14 02:51:00,65.3,64.7,30.23,West,275,0.0,0.0,98,0.00,,SCT180,0.00,VWS V14.00,2013-07-14 06:51:00,
2013-07-14 02:56:00,65.3,64.7,30.23,West,275,0.0,1.0,98,0.00,,SCT180,0.00,VWS V14.00,2013-07-14 06:56:00,
2013-07-14 03:01:00,65.3,64.7,30.23,West,275,0.0,1.0,98,0.00,,SCT180,0.00,VWS V14.00,2013-07-14 07:01:00,
2013-07-14 03:06:00,65.2,64.6,30.23,West,275,0.0,1.0,98,0.00,,SCT180,0.00,VWS V14.00,2013-07-14 07:06:00,
2013-07-14 03:11:00,65.2,64.6,30.23,West,275,0.0,1.0,98,0.00,,SCT180,0.00,VWS V14.00,2013-07-14 07:11:00,
2013-07-14 03:16:00,65.2,64.6,30.23,SW,226,0.0,2.0,98,0.00,,SCT180,0.00,VWS V14.00,2013-07-14 07:16:00,
2013-07-14 03:21:00,65.1,64.5,30.23,SW,226,1.0,2.0,98,0.00,,SCT180,0.00,VWS V14.00,2013-07-14 07:21:00,
2013-07-14 03:26:00,65.0,64.4,30.23,SW,226,0.0,2.0,98,0.00,,SCT180,0.00,VWS V14.00,2013-07-14 07:26:00,
2013-07-14 03:31:00,65.0,64.4,30.23,SW,226,0.0,0.0,98,0.00,,SCT180,0.00,VWS V14.00,2013-07-14 07:31:00,
2013-07-14 03:36:00,65.0,64.4,30.23,SW,226,0.0,1.0,98,0.00,,SCT180,0.00,VWS V14.00,2013-07-14 07:36:00,
2013-07-14 03:41:00,64.9,64.3,30.23,SW,219,0.0,3.0,98,0.00,,SCT180,0.00,VWS V14.00,2013-07-14 07:41:00,
2013-07-14 03:46:00,64.9,64.3,30.23,SW,219,0.0,3.0,98,0.00,,SCT180,0.00,VWS V14.00,2013-07-14 07:46:00,
2013-07-14 03:51:00,64.9,64.3,30.23,SSW,203,0.0,3.0,98,0.00,,SCT180,0.00,VWS V14.00,2013-07-14 07:51:00,
2013-07-14 03:56:00,64.9,64.3,30.23,SSW,207,2.0,3.0,98,0.00,,SCT180,0.00,VWS V14.00,2013-07-14 07:56:00,
2013-07-14 04:01:00,64.8,64.2,30.23,West,261,0.0,2.0,98,0.00,,SCT180,0.00,VWS V14.00,2013-07-14 08:01:00,
2013-07-14 04:06:00,64.7,64.1,30.23,SW,234,0.0,2.0,98,0.00,,SCT180,0.00,VWS V14.00,2013-07-14 08:06:00,
2013-07-14 04:11:00,64.6,64.0,30.23,SW,234,0.0,2.0,98,0.00,,SCT180,0.00,VWS V14.00,2013-07-14 08:11:00,
2013-07-14 04:16:00,64.5,63.9,30.23,SW,234,0.0,2.0,98,0.00,,SCT180,0.00,VWS V14.00,2013-07-14 08:16:00,
2013-07-14 04:21:00,64.5,63.9,30.23,NW,307,0.0,3.0,98,0.00,,SCT180,0.00,VWS V14.00,2013-07-14 08:21:00,
2013-07-14 04:26:00,64.4,63.8,30.23,NW,306,0.0,3.0,98,0.00,,SCT180,0.00,VWS V14.00,2013-07-14 08:26:00,
2013-07-14 04:31:00,64.3,63.7,30.23,WNW,290,0.0,0.0,98,0.00,,SCT180,0.00,VWS V14.00,2013-07-14 08:31:00,
2013-07-14 04:36:00,64.3,63.7,30.23,WNW,290,0.0,1.0,98,0.00,,SCT180,0.00,VWS V14.00,2013-07-14 08:36:00,
2013-07-14 04:41:00,64.3,63.7,30.23,WNW,290,0.0,1.0,98,0.00,,SCT180,0.00,VWS V14.00,2013-07-14 08:41:00,
2013-07-14 04:46:00,64.2,63.6,30.23,WNW,290,0.0,1.0,98,0.00,,SCT180,0.00,VWS V14.00,2013-07-14 08:46:00,
2013-07-14 04:51:00,64.2,63.6,30.23,WNW,290,0.0,1.0,98,0.00,,SCT180,0.00,VWS V14.00,2013-07-14 08:51:00,
2013-07-14 04:56:00,64.2,63.6,30.23,WNW,290,0.0,1.0,98,0.00,,SCT180,0.00,VWS V14.00,2013-07-14 08:56:00,
2013-07-14 05:01:00,64.2,63.6,30.23,WNW,290,0.0,0.0,98,0.00,,SCT180,0.00,VWS V14.00,2013-07-14 09:01:00,
2013-07-14 05:06:00,64.2,63.6,30.23,WNW,290,0.0,0.0,98,0.00,,SCT180,0.00,VWS V14.00,2013-07-14 09:06:00,
2013-07-14 05:11:00,64.1,63.5,30.23,WNW,290,0.0,0.0,98,0.00,,SCT180,0.00,VWS V14.00,2013-07-14 09:11:00,
2013-07-14 05:16:00,64.1,63.5,30.23,WNW,290,0.0,0.0,98,0.00,,SCT180,0.00,VWS V14.00,2013-07-14 09:16:00,
2013-07-14 05:21:00,64.1,63.5,30.24,WNW,290,0.0,0.0,98,0.00,,SCT180,0.00,VWS V14.00,2013-07-14 09:21:00,
2013-07-14 05:26:00,64.0,63.4,30.24,WNW,290,0.0,0.0,98,0.00,,SCT180,0.00,VWS V14.00,2013-07-14 09:26:00,
2013-07-14 05:31:00,63.9,63.3,30.23,WNW,290,0.0,0.0,98,0.00,,SCT180,0.00,VWS V14.00,2013-07-14 09:31:00,
2013-07-14 05:36:00,63.9,63.3,30.23,WNW,290,0.0,0.0,98,0.00,,SCT180,0.00,VWS V14.00,2013-07-14 09:36:00,
2013-07-14 05:41:00,63.9,63.6,30.24,WNW,290,0.0,0.0,99,0.00,,SCT180,0.00,VWS V14.00,2013-07-14 09:41:00,
2013-07-14 05:46:00,63.9,63.6,30.24,WNW,290,0.0,0.0,99,0.00,,SCT180,0.00,VWS V14.00,2013-07-14 09:46:00,
2013-07-14 05:51:00,63.9,63.6,30.24,WNW,290,0.0,0.0,99,0.00,,SCT180,0.00,VWS V14.00,2013-07-14 09:51:00,
2013-07-14 05:56:00,63.9,63.6,30.24,WNW,290,0.0,0.0,99,0.00,,SCT180,0.00,VWS V14.00,2013-07-14 09:56:00,
2013-07-14 06:01:00,64.0,63.7,30.24,WNW,290,0.0,0.0,99,0.00,,SCT180,0.00,VWS V14.00,2013-07-14 10:01:00,
2013-07-14 06:06:00,64.1,63.8,30.23,WNW,290,0.0,0.0,99,0.00,,SCT180,0.00,VWS V14.00,2013-07-14 10:06:00,
2013-07-14 06:11:00,64.1,63.8,30.23,WNW,290,0.0,0.0,99,0.00,,SCT180,0.00,VWS V14.00,2013-07-14 10:11:00,
2013-07-14 06:16:00,64.1,63.8,30.23,WNW,290,0.0,1.0,99,0.00,,SCT180,0.00,VWS V14.00,2013-07-14 10:16:00,
2013-07-14 06:21:00,64.2,63.9,30.23,WNW,290,0.0,1.0,99,0.00,,SCT180,0.00,VWS V14.00,2013-07-14 10:21:00,
2013-07-14 06:26:00,64.4,64.1,30.23,WNW,290,0.0,1.0,99,0.00,,SCT180,0.00,VWS V14.00,2013-07-14 10:26:00,
2013-07-14 06:31:00,64.4,64.1,30.23,WNW,290,0.0,0.0,99,0.00,,SCT180,0.00,VWS V14.00,2013-07-14 10:31:00,
2013-07-14 06:36:00,64.5,64.2,30.23,WNW,290,0.0,0.0,99,0.00,,SCT180,0.00,VWS V14.00,2013-07-14 10:36:00,
2013-07-14 06:41:00,64.8,64.5,30.23,WNW,290,0.0,0.0,99,0.00,,SCT180,0.00,VWS V14.00,2013-07-14 10:41:00,
2013-07-14 06:46:00,65.3,65.0,30.23,WNW,290,0.0,1.0,99,0.00,,SCT180,0.00,VWS V14.00,2013-07-14 10:46:00,
2013-07-14 06:51:00,65.4,65.1,30.23,WNW,290,0.0,1.0,99,0.00,,SCT180,0.00,VWS V14.00,2013-07-14 10:51:00,
2013-07-14 06:56:00,65.6,65.3,30.23,WNW,290,0.0,1.0,99,0.00,,SCT180,0.00,VWS V14.00,2013-07-14 10:56:00,
2013-07-14 07:01:00,65.9,65.6,30.23,WNW,290,0.0,0.0,99,0.00,,SCT180,0.00,VWS V14.00,2013-07-14 11:01:00,
2013-07-14 07:06:00,66.5,66.2,30.23,WNW,290,0.0,1.0,99,0.00,,SCT180,0.00,VWS V14.00,2013-07-14 11:06:00,
2013-07-14 07:11:00,67.0,66.7,30.23,WNW,290,1.0,1.0,99,0.00,,SCT180,0.00,VWS V14.00,2013-07-14 11:11:00,
2013-07-14 07:16:00,67.8,67.2,30.23,WNW,290,0.0,1.0,98,0.00,,SCT180,0.00,VWS V14.00,2013-07-14 11:16:00,
2013-07-14 07:20:00,68.0,67.1,30.23,WNW,290,0.0,2.0,97,0.00,,SCT180,0.00,VWS V14.00,2013-07-14 11:20:00,
2013-07-14 07:25:00,68.6,67.7,30.23,WNW,290,1.0,2.0,97,0.00,,SCT180,0.00,VWS V14.00,2013-07-14 11:25:00,
2013-07-14 07:30:00,69.1,67.9,30.24,WNW,290,0.0,0.0,96,0.00,,SCT180,0.00,VWS V14.00,2013-07-14 11:30:00,
2013-07-14 07:35:00,69.3,67.8,30.24,WNW,290,0.0,1.0,95,0.00,,SCT180,0.00,VWS V14.00,2013-07-14 11:35:00,
2013-07-14 07:40:00,70.1,68.0,30.23,West,268,1.0,4.0,93,0.00,,SCT180,0.00,VWS V14.00,2013-07-14 11:40:00,
2013-07-14 07:45:00,70.4,68.0,30.24,West,280,1.0,4.0,92,0.00,,SCT180,0.00,VWS V14.00,2013-07-14 11:45:00,
2013-07-14 07:50:00,70.8,68.1,30.24,West,277,0.0,4.0,91,0.00,,SCT180,0.00,VWS V14.00,2013-07-14 11:50:00,
2013-07-14 07:55:00,71.2,68.1,30.24,West,277,1.0,5.0,90,0.00,,SCT180,0.00,VWS V14.00,2013-07-14 11:55:00,
2013-07-14 08:00:00,71.6,68.5,30.24,WSW,239,5.0,5.0,90,0.00,,SCT180,0.00,VWS V14.00,2013-07-14 12:00:00,
2013-07-14 08:05:00,72.1,68.3,30.24,WSW,255,1.0,5.0,88,0.00,,SCT180,0.00,VWS V14.00,2013-07-14 12:05:00,
2013-07-14 08:11:00,72.6,68.5,30.24,West,264,0.0,5.0,87,0.00,,SCT180,0.00,VWS V14.00,2013-07-14 12:11:00,
2013-07-14 08:16:00,73.0,68.6,30.24,WSW,256,1.0,5.0,86,0.00,,SCT180,0.00,VWS V14.00,2013-07-14 12:16:00,
2013-07-14 08:21:00,73.7,69.3,30.24,WSW,257,2.0,5.0,86,0.00,,SCT180,0.00,VWS V14.00,2013-07-14 12:21:00,
2013-07-14 08:26:00,74.0,69.6,30.24,West,275,1.0,5.0,86,0.00,,SCT180,0.00,VWS V14.00,2013-07-14 12:26:00,
2013-07-14 08:31:00,75.0,69.8,30.24,West,275,2.0,2.0,84,0.00,,SCT180,0.00,VWS V14.00,2013-07-14 12:31:00,
2013-07-14 08:36:00,74.9,69.4,30.23,West,269,4.0,4.0,83,0.00,,SCT180,0.00,VWS V14.00,2013-07-14 12:36:00,
2013-07-14 08:41:00,75.6,69.7,30.23,West,268,0.0,6.0,82,0.00,,SCT180,0.00,VWS V14.00,2013-07-14 12:41:00,
2013-07-14 08:46:00,76.0,70.8,30.23,West,268,0.0,6.0,84,0.00,,SCT180,0.00,VWS V14.00,2013-07-14 12:46:00,
2013-07-14 08:51:00,76.7,70.1,30.23,ENE,75,1.0,6.0,80,0.00,,SCT180,0.00,VWS V14.00,2013-07-14 12:51:00,
2013-07-14 08:56:00,76.9,70.6,30.23,West,265,2.0,6.0,81,0.00,,SCT180,0.00,VWS V14.00,2013-07-14 12:56:00,
2013-07-14 09:01:00,77.3,70.3,30.23,SE,133,1.0,2.0,79,0.00,,SCT180,0.00,VWS V14.00,2013-07-14 13:01:00,
2013-07-14 09:06:00,77.3,71.4,30.23,North,350,1.0,4.0,82,0.00,,SCT180,0.00,VWS V14.00,2013-07-14 13:06:00,
2013-07-14 09:11:00,77.6,70.9,30.23,East,92,0.0,4.0,80,0.00,,SCT180,0.00,VWS V14.00,2013-07-14 13:11:00,
2013-07-14 09:16:00,77.6,70.2,30.23,ENE,70,3.0,4.0,78,0.00,,SCT180,0.00,VWS V14.00,2013-07-14 13:16:00,
2013-07-14 09:21:00,77.6,70.2,30.23,East,91,2.0,4.0,78,0.00,,SCT180,0.00,VWS V14.00,2013-07-14 13:21:00,
2013-07-14 09:26:00,77.9,70.5,30.23,South,172,0.0,4.0,78,0.00,,SCT180,0.00,VWS V14.00,2013-07-14 13:26:00,
2013-07-14 09:31:00,78.3,70.5,30.23,NW,306,0.0,2.0,77,0.00,,SCT180,0.00,VWS V14.00,2013-07-14 13:31:00,
2013-07-14 09:36:00,78.3,70.1,30.22,East,92,2.0,5.0,76,0.00,,SCT180,0.00,VWS V14.00,2013-07-14 13:36:00,
2013-07-14 09:41:00,78.1,70.3,30.22,West,265,1.0,8.0,77,0.00,,SCT180,0.00,VWS V14.00,2013-07-14 13:41:00,
2013-07-14 09:46:00,78.4,71.0,30.22,West,261,2.0,8.0,78,0.00,,SCT180,0.00,VWS V14.00,2013-07-14 13:46:00,
2013-07-14 09:51:00,79.3,72.2,30.22,SW,227,0.0,8.0,79,0.00,,SCT180,0.00,VWS V14.00,2013-07-14 13:51:00,
2013-07-14 09:56:00,78.8,69.8,30.22,West,264,2.0,8.0,74,0.00,,SCT180,0.00,VWS V14.00,2013-07-14 13:56:00,
2013-07-14 10:00:00,79.0,70.4,30.22,NW,323,0.0,0.0,75,0.00,,SCT180,0.00,VWS V14.00,2013-07-14 14:00:00,
2013-07-14 10:05:00,79.3,70.3,30.22,East,91,3.0,6.0,74,0.00,,SCT180,0.00,VWS V14.00,2013-07-14 14:05:00,
2013-07-14 10:11:00,80.0,71.4,30.22,East,92,1.0,6.0,75,0.00,,SCT180,0.00,VWS V14.00,2013-07-14 14:11:00,
2013-07-14 10:16:00,79.7,69.9,30.22,East,84,2.0,7.0,72,0.00,,SCT180,0.00,VWS V14.00,2013-07-14 14:16:00,
2013-07-14 10:21:00,79.5,70.1,30.22,West,271,1.0,8.0,73,0.00,,SCT180,0.00,VWS V14.00,2013-07-14 14:21:00,
2013-07-14 10:26:00,80.2,71.9,30.21,ENE,63,1.0,8.0,76,0.00,,SCT180,0.00,VWS V14.00,2013-07-14 14:26:00,
2013-07-14 10:31:00,80.5,71.1,30.22,West,276,0.0,0.0,73,0.00,,SCT180,0.00,VWS V14.00,2013-07-14 14:31:00,
2013-07-14 10:36:00,80.7,70.4,30.22,WSW,252,2.0,7.0,71,0.00,,SCT180,0.00,VWS V14.00,2013-07-14 14:36:00,
2013-07-14 10:41:00,80.7,70.0,30.22,West,270,0.0,7.0,70,0.00,,SCT180,0.00,VWS V14.00,2013-07-14 14:41:00,
2013-07-14 10:46:00,81.2,70.9,30.22,ENE,66,0.0,7.0,71,0.00,,SCT180,0.00,VWS V14.00,2013-07-14 14:46:00,
2013-07-14 10:51:00,81.5,72.0,30.22,NW,309,2.0,7.0,73,0.00,,SCT180,0.00,VWS V14.00,2013-07-14 14:51:00,
2013-07-14 10:55:00,81.4,71.5,30.21,WNW,295,1.0,7.0,72,0.00,,SCT180,0.00,VWS V14.00,2013-07-14 14:55:00,
2013-07-14 11:00:00,81.9,71.6,30.21,ENE,63,0.0,0.0,71,0.00,,SCT180,0.00,VWS V14.00,2013-07-14 15:00:00,
2013-07-14 11:05:00,82.3,71.1,30.21,WNW,292,0.0,2.0,69,0.00,,SCT180,0.00,VWS V14.00,2013-07-14 15:05:00,
2013-07-14 11:10:00,82.3,72.8,30.21,West,272,4.0,4.0,73,0.00,,SCT180,0.00,VWS V14.00,2013-07-14 15:10:00,
2013-07-14 11:15:00,82.3,71.1,30.21,WSW,250,0.0,5.0,69,0.00,,SCT180,0.00,VWS V14.00,2013-07-14 15:15:00,
2013-07-14 11:20:00,82.5,70.9,30.21,West,274,4.0,7.0,68,0.00,,SCT180,0.00,VWS V14.00,2013-07-14 15:20:00,
2013-07-14 11:25:00,82.6,71.8,30.21,East,90,0.0,7.0,70,0.00,,SCT180,0.00,VWS V14.00,2013-07-14 15:25:00,
2013-07-14 11:30:00,83.0,70.5,30.21,West,262,1.0,3.0,66,0.00,,SCT180,0.00,VWS V14.00,2013-07-14 15:30:00,
2013-07-14 11:35:00,83.0,70.9,30.21,ENE,77,0.0,3.0,67,0.00,,SCT180,0.00,VWS V14.00,2013-07-14 15:35:00,
2013-07-14 11:40:00,83.4,72.6,30.21,West,269,0.0,3.0,70,0.00,,SCT180,0.00,VWS V14.00,2013-07-14 15:40:00,
2013-07-14 11:45:00,83.4,69.9,30.21,West,271,3.0,3.0,64,0.00,,SCT180,0.00,VWS V14.00,2013-07-14 15:45:00,
2013-07-14 11:50:00,83.6,71.9,30.20,West,271,2.0,4.0,68,0.00,,SCT180,0.00,VWS V14.00,2013-07-14 15:50:00,
2013-07-14 11:55:00,83.2,70.7,30.21,West,271,0.0,4.0,66,0.00,,SCT180,0.00,VWS V14.00,2013-07-14 15:55:00,
2013-07-14 12:00:00,82.6,71.4,30.21,West,271,0.0,0.0,69,0.00,,SCT180,0.00,VWS V14.00,2013-07-14 16:00:00,
2013-07-14 12:05:00,82.4,69.9,30.20,South,186,1.0,2.0,66,0.00,,SCT180,0.00,VWS V14.00,2013-07-14 16:05:00,
2013-07-14 12:10:00,84.1,71.1,30.20,WSW,258,3.0,4.0,65,0.00,,SCT180,0.00,VWS V14.00,2013-07-14 16:10:00,
2013-07-14 12:15:00,84.3,69.9,30.20,WSW,258,2.0,4.0,62,0.00,,SCT180,0.00,VWS V14.00,2013-07-14 16:15:00,
2013-07-14 12:20:00,84.5,69.6,30.20,ENE,74,2.0,4.0,61,0.00,,SCT180,0.00,VWS V14.00,2013-07-14 16:20:00,
2013-07-14 12:25:00,84.4,70.0,30.20,East,92,0.0,4.0,62,0.00,,SCT180,0.00,VWS V14.00,2013-07-14 16:25:00,
2013-07-14 12:30:00,84.4,69.5,30.20,West,266,1.0,3.0,61,0.00,,SCT180,0.00,VWS V14.00,2013-07-14 16:30:00,
2013-07-14 12:35:00,84.4,70.0,30.20,SSE,155,0.0,3.0,62,0.00,,SCT180,0.00,VWS V14.00,2013-07-14 16:35:00,
2013-07-14 12:40:00,84.9,70.4,30.19,West,263,6.0,6.0,62,0.00,,SCT180,0.00,VWS V14.00,2013-07-14 16:40:00,
2013-07-14 12:45:00,84.6,68.7,30.19,West,269,0.0,7.0,59,0.00,,SCT180,0.00,VWS V14.00,2013-07-14 16:45:00,
2013-07-14 12:50:00,84.4,69.0,30.19,SSW,207,0.0,7.0,60,0.00,,SCT180,0.00,VWS V14.00,2013-07-14 16:50:00,
2013-07-14 12:55:00,85.5,70.5,30.19,SSW,207,0.0,7.0,61,0.00,,SCT180,0.00,VWS V14.00,2013-07-14 16:55:00,
2013-07-14 13:00:00,85.7,70.7,30.19,WSW,239,1.0,1.0,61,0.00,,SCT180,0.00,VWS V14.00,2013-07-14 17:00:00,
2013-07-14 13:05:00,85.5,69.1,30.19,West,272,0.0,5.0,58,0.00,,SCT180,0.00,VWS V14.00,2013-07-14 17:05:00,
2013-07-14 13:10:00,84.8,69.9,30.19,SSW,192,3.0,5.0,61,0.00,,SCT180,0.00,VWS V14.00,2013-07-14 17:10:00,
2013-07-14 13:15:00,84.2,71.6,30.19,NE,49,2.0,5.0,66,0.00,,SCT180,0.00,VWS V14.00,2013-07-14 17:15:00,
2013-07-14 13:20:00,84.9,70.4,30.19,ESE,103,1.0,5.0,62,0.00,,SCT180,0.00,VWS V14.00,2013-07-14 17:20:00,
2013-07-14 13:25:00,85.2,71.2,30.19,SW,217,1.0,5.0,63,0.00,,SCT180,0.00,VWS V14.00,2013-07-14 17:25:00,
2013-07-14 13:30:00,84.8,70.8,30.19,SE,133,0.0,0.0,63,0.00,,SCT180,0.00,VWS V14.00,2013-07-14 17:30:00,
2013-07-14 13:35:00,84.4,71.4,30.19,WNW,300,1.0,3.0,65,0.00,,SCT180,0.00,VWS V14.00,2013-07-14 17:35:00,
2013-07-14 13:40:00,84.4,71.8,30.18,West,269,2.0,4.0,66,0.00,,SCT180,0.00,VWS V14.00,2013-07-14 17:40:00,
2013-07-14 13:45:00,84.7,71.6,30.19,West,272,2.0,6.0,65,0.00,,SCT180,0.00,VWS V14.00,2013-07-14 17:45:00,
2013-07-14 13:50:00,84.3,71.3,30.18,West,281,5.0,6.0,65,0.00,,SCT180,0.00,VWS V14.00,2013-07-14 17:50:00,
2013-07-14 13:55:00,85.0,71.5,30.18,WSW,247,9.0,9.0,64,0.00,,SCT180,0.00,VWS V14.00,2013-07-14 17:55:00,
2013-07-14 14:00:00,85.2,70.7,30.18,WSW,258,3.0,4.0,62,0.00,,SCT180,0.00,VWS V14.00,2013-07-14 18:00:00,
2013-07-14 14:05:00,84.7,71.2,30.18,South,191,2.0,5.0,64,0.00,,SCT180,0.00,VWS V14.00,2013-07-14 18:05:00,
2013-07-14 14:10:00,84.7,70.7,30.18,WNW,285,0.0,7.0,63,0.00,,SCT180,0.00,VWS V14.00,2013-07-14 18:10:00,
2013-07-14 14:15:00,85.2,71.7,30.18,South,191,1.0,7.0,64,0.00,,SCT180,0.00,VWS V14.00,2013-07-14 18:15:00,
2013-07-14 14:20:00,85.2,71.2,30.18,South,182,4.0,7.0,63,0.00,,SCT180,0.00,VWS V14.00,2013-07-14 18:20:00,
2013-07-14 14:25:00,85.1,71.6,30.18,WNW,297,2.0,7.0,64,0.00,,SCT180,0.00,VWS V14.00,2013-07-14 18:25:00,
2013-07-14 14:30:00,85.4,70.9,30.18,West,272,3.0,5.0,62,0.00,,SCT180,0.00,VWS V14.00,2013-07-14 18:30:00,
2013-07-14 14:35:00,85.3,73.1,30.18,SW,216,2.0,5.0,67,0.00,,SCT180,0.00,VWS V14.00,2013-07-14 18:35:00,
2013-07-14 14:40:00,85.5,71.5,30.18,South,190,7.0,7.0,63,0.00,,SCT180,0.00,VWS V14.00,2013-07-14 18:40:00,
2013-07-14 14:45:00,85.3,71.8,30.17,South,171,0.0,7.0,64,0.00,,SCT180,0.00,VWS V14.00,2013-07-14 18:45:00,
2013-07-14 14:50:00,84.9,72.3,30.17,SW,215,0.0,7.0,66,0.00,,SCT180,0.00,VWS V14.00,2013-07-14 18:50:00,
2013-07-14 14:55:00,85.2,73.9,30.17,South,174,2.0,7.0,69,0.00,,SCT180,0.00,VWS V14.00,2013-07-14 18:55:00,
2013-07-14 15:00:00,85.3,73.6,30.17,WSW,245,1.0,3.0,68,0.00,,SCT180,0.00,VWS V14.00,2013-07-14 19:00:00,
2013-07-14 15:05:00,85.0,71.0,30.17,SW,234,2.0,6.0,63,0.00,,SCT180,0.00,VWS V14.00,2013-07-14 19:05:00,
2013-07-14 15:10:00,84.5,71.9,30.17,SW,226,2.0,8.0,66,0.00,,SCT180,0.00,VWS V14.00,2013-07-14 19:10:00,
2013-07-14 15:15:00,84.7,71.2,30.17,SW,218,3.0,8.0,64,0.00,,SCT180,0.00,VWS V14.00,2013-07-14 19:15:00,
2013-07-14 15:20:00,84.4,70.4,30.17,ESE,109,1.0,9.0,63,0.00,,SCT180,0.00,VWS V14.00,2013-07-14 19:20:00,
2013-07-14 15:25:00,84.4,70.4,30.17,South,175,1.0,9.0,63,0.00,,SCT180,0.00,VWS V14.00,2013-07-14 19:25:00,
2013-07-14 15:30:00,83.8,70.8,30.16,NE,46,0.0,2.0,65,0.00,,SCT180,0.00,VWS V14.00,2013-07-14 19:30:00,
2013-07-14 15:35:00,83.4,69.9,30.16,SSE,155,2.0,7.0,64,0.00,,SCT180,0.00,VWS V14.00,2013-07-14 19:35:00,
2013-07-14 15:40:00,83.5,69.6,30.16,South,169,2.0,7.0,63,0.00,,SCT180,0.00,VWS V14.00,2013-07-14 19:40:00,
2013-07-14 15:45:00,83.9,70.4,30.16,SW,218,6.0,8.0,64,0.00,,SCT180,0.00,VWS V14.00,2013-07-14 19:45:00,
2013-07-14 15:50:00,83.4,68.6,30.16,SW,236,4.0,8.0,61,0.00,,SCT180,0.00,VWS V14.00,2013-07-14 19:50:00,
2013-07-14 15:55:00,83.2,69.8,30.16,NW,309,2.0,8.0,64,0.00,,SCT180,0.00,VWS V14.00,2013-07-14 19:55:00,
2013-07-14 16:00:00,83.2,69.8,30.16,WSW,257,5.0,5.0,64,0.00,,SCT180,0.00,VWS V14.00,2013-07-14 20:00:00,
2013-07-14 16:05:00,82.9,69.0,30.16,SSW,203,0.0,7.0,63,0.00,,SCT180,0.00,VWS V14.00,2013-07-14 20:05:00,
2013-07-14 16:10:00,83.2,68.8,30.16,SSE,153,5.0,8.0,62,0.00,,SCT180,0.00,VWS V14.00,2013-07-14 20:10:00,
2013-07-14 16:15:00,82.5,68.6,30.16,SSW,209,0.0,8.0,63,0.00,,SCT180,0.00,VWS V14.00,2013-07-14 20:15:00,
2013-07-14 16:20:00,82.2,67.9,30.16,West,279,2.0,8.0,62,0.00,,SCT180,0.00,VWS V14.00,2013-07-14 20:20:00,
2013-07-14 16:25:00,82.0,68.6,30.16,SW,215,4.0,8.0,64,0.00,,SCT180,0.00,VWS V14.00,2013-07-14 20:25:00,
2013-07-14 16:30:00,81.8,68.0,30.16,NNW,336,0.0,2.0,63,0.00,,SCT180,0.00,VWS V14.00,2013-07-14 20:30:00,
2013-07-14 16:35:00,82.0,69.1,30.15,West,261,5.0,5.0,65,0.00,,SCT180,0.00,VWS V14.00,2013-07-14 20:35:00,
2013-07-14 16:40:00,82.1,68.3,30.15,WSW,244,4.0,7.0,63,0.00,,SCT180,0.00,VWS V14.00,2013-07-14 20:40:00,
2013-07-14 16:45:00,81.5,67.7,30.15,NNW,345,4.0,7.0,63,0.00,,SCT180,0.00,VWS V14.00,2013-07-14 20:45:00,
2013-07-14 16:50:00,81.3,68.0,30.15,SW,222,1.0,8.0,64,0.00,,SCT180,0.00,VWS V14.00,2013-07-14 20:50:00,
2013-07-14 16:55:00,81.3,68.4,30.15,NW,321,3.0,8.0,65,0.00,,SCT180,0.00,VWS V14.00,2013-07-14 20:55:00,
2013-07-14 17:00:00,81.2,68.8,30.15,SW,234,0.0,0.0,66,0.00,,SCT180,0.00,VWS V14.00,2013-07-14 21:00:00,
2013-07-14 17:05:00,81.1,67.8,30.15,WSW,255,4.0,6.0,64,0.00,,SCT180,0.00,VWS V14.00,2013-07-14 21:05:00,
2013-07-14 17:10:00,80.8,68.4,30.15,WNW,298,2.0,6.0,66,0.00,,SCT180,0.00,VWS V14.00,2013-07-14 21:10:00,
2013-07-14 17:15:00,80.5,67.7,30.15,SSE,155,5.0,7.0,65,0.00,,SCT180,0.00,VWS V14.00,2013-07-14 21:15:00,
2013-07-14 17:20:00,80.2,67.8,30.15,SW,222,2.0,7.0,66,0.00,,SCT180,0.00,VWS V14.00,2013-07-14 21:20:00,
2013-07-14 17:25:00,80.3,68.3,30.14,SW,226,2.0,7.0,67,0.00,,SCT180,0.00,VWS V14.00,2013-07-14 21:25:00,
2013-07-14 17:30:00,80.6,69.9,30.14,SSW,202,0.0,0.0,70,0.00,,SCT180,0.00,VWS V14.00,2013-07-14 21:30:00,
2013-07-14 17:35:00,80.9,68.9,30.14,SW,223,0.0,4.0,67,0.00,,SCT180,0.00,VWS V14.00,2013-07-14 21:35:00,
2013-07-14 17:40:00,80.6,69.1,30.15,SW,224,6.0,7.0,68,0.00,,SCT180,0.00,VWS V14.00,2013-07-14 21:40:00,
2013-07-14 17:45:00,80.4,67.6,30.15,SSE,164,3.0,7.0,65,0.00,,SCT180,0.00,VWS V14.00,2013-07-14 21:45:00,
2013-07-14 17:50:00,80.1,67.7,30.15,SSW,207,3.0,8.0,66,0.00,,SCT180,0.00,VWS V14.00,2013-07-14 21:50:00,
2013-07-14 17:55:00,79.5,67.6,30.15,SW,232,0.0,8.0,67,0.00,,SCT180,0.00,VWS V14.00,2013-07-14 21:55:00,
2013-07-14 18:00:00,79.4,68.3,30.15,SSW,205,0.0,0.0,69,0.00,,SCT180,0.00,VWS V14.00,2013-07-14 22:00:00,
2013-07-14 18:05:00,79.5,67.6,30.15,South,171,2.0,3.0,67,0.00,,SCT180,0.00,VWS V14.00,2013-07-14 22:05:00,
2013-07-14 18:10:00,79.7,66.9,30.15,SW,234,0.0,5.0,65,0.00,,SCT180,0.00,VWS V14.00,2013-07-14 22:10:00,
2013-07-14 18:15:00,79.5,67.2,30.15,SW,217,0.0,6.0,66,0.00,,SCT180,0.00,VWS V14.00,2013-07-14 22:15:00,
2013-07-14 18:20:00,79.3,67.0,30.15,SW,235,4.0,6.0,66,0.00,,SCT180,0.00,VWS V14.00,2013-07-14 22:20:00,
2013-07-14 18:25:00,79.1,66.8,30.15,SW,229,0.0,6.0,66,0.00,,SCT180,0.00,VWS V14.00,2013-07-14 22:25:00,
2013-07-14 18:30:00,79.0,67.1,30.15,WSW,241,0.0,1.0,67,0.00,,SCT180,0.00,VWS V14.00,2013-07-14 22:30:00,
2013-07-14 18:35:00,78.7,66.4,30.15,SSE,158,2.0,5.0,66,0.00,,SCT180,0.00,VWS V14.00,2013-07-14 22:35:00,
2013-07-14 18:40:00,78.5,66.6,30.15,SSW,204,0.0,6.0,67,0.00,,SCT180,0.00,VWS V14.00,2013-07-14 22:40:00,
2013-07-14 18:45:00,78.4,67.0,30.15,NW,311,0.0,6.0,68,0.00,,SCT180,0.00,VWS V14.00,2013-07-14 22:45:00,
2013-07-14 18:50:00,78.0,67.8,30.15,NW,311,0.0,6.0,71,0.00,,SCT180,0.00,VWS V14.00,2013-07-14 22:50:00,
2013-07-14 18:55:00,77.6,67.5,30.15,NW,311,0.0,6.0,71,0.00,,SCT180,0.00,VWS V14.00,2013-07-14 22:55:00,
2013-07-14 19:00:00,77.4,68.9,30.15,NW,311,0.0,0.0,75,0.00,,SCT180,0.00,VWS V14.00,2013-07-14 23:00:00,
2013-07-14 19:05:00,76.8,69.1,30.15,NW,311,0.0,0.0,77,0.00,,SCT180,0.00,VWS V14.00,2013-07-14 23:05:00,
2013-07-14 19:10:00,76.1,68.8,30.14,NW,311,0.0,1.0,78,0.00,,SCT180,0.00,VWS V14.00,2013-07-14 23:10:00,
2013-07-14 19:15:00,75.6,69.0,30.14,NW,311,0.0,1.0,80,0.00,,SCT180,0.00,VWS V14.00,2013-07-14 23:15:00,
2013-07-14 19:20:00,75.5,68.9,30.15,NW,311,0.0,1.0,80,0.00,,SCT180,0.00,VWS V14.00,2013-07-14 23:20:00,
2013-07-14 19:25:00,75.1,68.9,30.14,WNW,289,3.0,3.0,81,0.00,,SCT180,0.00,VWS V14.00,2013-07-14 23:25:00,
2013-07-14 19:30:00,74.9,67.9,30.15,SW,229,1.0,1.0,79,0.00,,SCT180,0.00,VWS V14.00,2013-07-14 23:30:00,
2013-07-14 19:35:00,74.9,67.9,30.14,SW,229,0.0,1.0,79,0.00,,SCT180,0.00,VWS V14.00,2013-07-14 23:35:00,
2013-07-14 19:40:00,74.5,68.3,30.15,SW,229,0.0,1.0,81,0.00,,SCT180,0.00,VWS V14.00,2013-07-14 23:40:00,
2013-07-14 19:45:00,74.5,67.9,30.14,SW,229,0.0,1.0,80,0.00,,SCT180,0.00,VWS V14.00,2013-07-14 23:45:00,
2013-07-14 19:50:00,74.2,67.6,30.14,WSW,244,0.0,1.0,80,0.00,,SCT180,0.00,VWS V14.00,2013-07-14 23:50:00,
2013-07-14 19:55:00,74.0,67.8,30.14,WSW,244,0.0,1.0,81,0.00,,SCT180,0.00,VWS V14.00,2013-07-14 23:55:00,
2013-07-14 20:00:00,73.5,67.7,30.14,WSW,244,0.0,0.0,82,0.00,,SCT180,0.00,VWS V14.00,2013-07-15 00:00:00,
2013-07-14 20:05:00,73.0,67.2,30.15,WSW,244,0.0,1.0,82,0.00,,SCT180,0.00,VWS V14.00,2013-07-15 00:05:00,
2013-07-14 20:10:00,73.0,67.2,30.14,WSW,244,0.0,1.0,82,0.00,,SCT180,0.00,VWS V14.00,2013-07-15 00:10:00,
2013-07-14 20:15:00,72.6,67.2,30.15,WSW,244,2.0,2.0,83,0.00,,SCT180,0.00,VWS V14.00,2013-07-15 00:15:00,
2013-07-14 20:20:00,72.6,66.8,30.15,WSW,244,0.0,2.0,82,0.00,,SCT180,0.00,VWS V14.00,2013-07-15 00:20:00,
2013-07-14 20:25:00,72.5,67.1,30.15,WSW,244,0.0,2.0,83,0.00,,SCT180,0.00,VWS V14.00,2013-07-15 00:25:00,
2013-07-14 20:30:00,72.4,66.9,30.15,WSW,244,0.0,0.0,83,0.00,,SCT180,0.00,VWS V14.00,2013-07-15 00:30:00,
2013-07-14 20:35:00,72.5,66.7,30.15,WSW,244,0.0,2.0,82,0.00,,SCT180,0.00,VWS V14.00,2013-07-15 00:35:00,
2013-07-14 20:40:00,72.5,67.1,30.15,WSW,244,0.0,2.0,83,0.00,,SCT180,0.00,VWS V14.00,2013-07-15 00:40:00,
2013-07-14 20:45:00,72.1,66.7,30.15,WSW,244,0.0,2.0,83,0.00,,SCT180,0.00,VWS V14.00,2013-07-15 00:45:00,
2013-07-14 20:50:00,72.1,66.7,30.15,WSW,245,0.0,2.0,83,0.00,,SCT180,0.00,VWS V14.00,2013-07-15 00:50:00,
2013-07-14 20:55:00,72.2,66.8,30.15,WSW,242,0.0,2.0,83,0.00,,SCT180,0.00,VWS V14.00,2013-07-15 00:55:00,
2013-07-14 21:00:00,72.1,66.7,30.15,WSW,242,0.0,0.0,83,0.00,,SCT180,0.00,VWS V14.00,2013-07-15 01:00:00,
2013-07-14 21:05:00,72.2,66.8,30.16,WSW,242,0.0,1.0,83,0.00,,SCT180,0.00,VWS V14.00,2013-07-15 01:05:00,
2013-07-14 21:10:00,72.0,66.6,30.15,WSW,242,0.0,2.0,83,0.00,,SCT180,0.00,VWS V14.00,2013-07-15 01:10:00,
2013-07-14 21:15:00,71.9,66.8,30.15,WSW,242,0.0,2.0,84,0.00,,SCT180,0.00,VWS V14.00,2013-07-15 01:15:00,
2013-07-14 21:20:00,72.0,66.9,30.15,WSW,247,0.0,2.0,84,0.00,,SCT180,0.00,VWS V14.00,2013-07-15 01:20:00,
2013-07-14 21:25:00,72.1,66.7,30.15,WNW,283,0.0,2.0,83,0.00,,SCT180,0.00,VWS V14.00,2013-07-15 01:25:00,
2013-07-14 21:30:00,72.2,66.8,30.15,WNW,298,0.0,2.0,83,0.00,,SCT180,0.00,VWS V14.00,2013-07-15 01:30:00,
2013-07-14 21:35:00,72.1,66.7,30.15,WNW,298,0.0,1.0,83,0.00,,SCT180,0.00,VWS V14.00,2013-07-15 01:35:00,
2013-07-14 21:40:00,72.1,66.7,30.15,WNW,298,0.0,1.0,83,0.00,,SCT180,0.00,VWS V14.00,2013-07-15 01:40:00,
2013-07-14 21:45:00,71.9,66.8,30.15,West,263,0.0,3.0,84,0.00,,SCT180,0.00,VWS V14.00,2013-07-15 01:45:00,
2013-07-14 21:50:00,72.1,66.7,30.15,West,259,0.0,5.0,83,0.00,,SCT180,0.00,VWS V14.00,2013-07-15 01:50:00,
2013-07-14 21:55:00,72.2,67.1,30.15,West,259,0.0,5.0,84,0.00,,SCT180,0.00,VWS V14.00,2013-07-15 01:55:00,
2013-07-14 22:00:00,72.1,67.0,30.15,West,259,0.0,5.0,84,0.00,,SCT180,0.00,VWS V14.00,2013-07-15 02:00:00,
2013-07-14 22:05:00,71.9,66.8,30.15,West,259,0.0,2.0,84,0.00,,SCT180,0.00,VWS V14.00,2013-07-15 02:05:00,
2013-07-14 22:10:00,72.1,67.0,30.15,West,259,0.0,2.0,84,0.00,,SCT180,0.00,VWS V14.00,2013-07-15 02:10:00,
2013-07-14 22:15:00,71.8,66.7,30.15,West,259,0.0,2.0,84,0.00,,SCT180,0.00,VWS V14.00,2013-07-15 02:15:00,
2013-07-14 22:20:00,71.8,66.7,30.15,West,259,0.0,2.0,84,0.00,,SCT180,0.00,VWS V14.00,2013-07-15 02:20:00,
2013-07-14 22:25:00,71.6,66.9,30.15,West,259,0.0,2.0,85,0.00,,SCT180,0.00,VWS V14.00,2013-07-15 02:25:00,
2013-07-14 22:30:00,71.2,66.8,30.15,West,259,0.0,2.0,86,0.00,,SCT180,0.00,VWS V14.00,2013-07-15 02:30:00,
2013-07-14 22:35:00,71.0,66.6,30.14,West,259,0.0,1.0,86,0.00,,SCT180,0.00,VWS V14.00,2013-07-15 02:35:00,
2013-07-14 22:40:00,70.6,66.6,30.14,West,259,0.0,1.0,87,0.00,,SCT180,0.00,VWS V14.00,2013-07-15 02:40:00,
2013-07-14 22:45:00,70.3,66.6,30.14,West,259,0.0,1.0,88,0.00,,SCT180,0.00,VWS V14.00,2013-07-15 02:45:00,
2013-07-14 22:50:00,70.0,66.6,30.14,West,259,0.0,1.0,89,0.00,,SCT180,0.00,VWS V14.00,2013-07-15 02:50:00,
2013-07-14 22:55:00,69.8,66.7,30.14,West,259,0.0,1.0,90,0.00,,SCT180,0.00,VWS V14.00,2013-07-15 02:55:00,
2013-07-14 23:00:00,69.7,66.6,30.14,West,259,0.0,1.0,90,0.00,,SCT180,0.00,VWS V14.00,2013-07-15 03:00:00,
2013-07-14 23:05:00,69.5,66.4,30.14,West,259,0.0,0.0,90,0.00,,SCT180,0.00,VWS V14.00,2013-07-15 03:05:00,
2013-07-14 23:10:00,69.4,66.7,30.14,West,259,0.0,0.0,91,0.00,,SCT180,0.00,VWS V14.00,2013-07-15 03:10:00,
2013-07-14 23:15:00,69.3,66.6,30.14,West,259,0.0,1.0,91,0.00,,SCT180,0.00,VWS V14.00,2013-07-15 03:15:00,
2013-07-14 23:20:00,69.2,66.5,30.14,West,259,0.0,1.0,91,0.00,,SCT180,0.00,VWS V14.00,2013-07-15 03:20:00,
2013-07-14 23:25:00,69.1,66.4,30.14,West,259,0.0,1.0,91,0.00,,SCT180,0.00,VWS V14.00,2013-07-15 03:25:00,
2013-07-14 23:30:00,68.8,66.4,30.14,West,259,0.0,1.0,92,0.00,,SCT180,0.00,VWS V14.00,2013-07-15 03:30:00,
2013-07-14 23:35:00,68.7,66.3,30.14,West,259,0.0,0.0,92,0.00,,SCT180,0.00,VWS V14.00,2013-07-15 03:35:00,
2013-07-14 23:40:00,68.4,66.0,30.14,West,259,0.0,1.0,92,0.00,,SCT180,0.00,VWS V14.00,2013-07-15 03:40:00,
2013-07-14 23:45:00,68.2,66.1,30.14,West,259,0.0,1.0,93,0.00,,SCT180,0.00,VWS V14.00,2013-07-15 03:45:00,
2013-07-14 23:50:00,68.0,65.9,30.14,West,259,0.0,1.0,93,0.00,,SCT180,0.00,VWS V14.00,2013-07-15 03:50:00,
2013-07-14 23:55:00,67.8,66.0,30.14,West,259,0.0,1.0,94,0.00,,SCT180,0.00,VWS V14.00,2013-07-15 03:55:00,